Time;durP1;ratioP1;P1;durP2;ratioP2;P2;SDS_P1;SDS_P2;PMS_P1;PMS_P2;Temp;Humidity;BMP_temperature;BMP_pressure;BME280_temperature;BME280_humidity;BME280_pressure;Samples;Min_cycle;Max_cycle;Signal;HPM_P1;HPM_P2
2022/04/21 00:00:29;;;;;;;9.63;7.83;;;;;;;;;;5076020;28;20483;-71
2022/04/21 00:02:58;;;;;;;15.00;9.60;;;;;;;;;;5075930;28;20825;-71
2022/04/21 00:05:25;;;;;;;10.47;8.03;;;;;;;;;;5075637;28;20459;-72
2022/04/21 00:07:53;;;;;;;17.43;8.83;;;;;;;;;;5075658;28;20530;-72
2022/04/21 00:10:20;;;;;;;12.23;8.07;;;;;;;;;;5075841;28;20508;-71
2022/04/21 00:12:47;;;;;;;15.10;9.23;;;;;;;;;;5075980;28;20452;-71
2022/04/21 00:15:15;;;;;;;13.93;9.33;;;;;;;;;;5075370;28;20470;-71
2022/04/21 00:17:42;;;;;;;13.53;8.20;;;;;;;;;;5075657;28;20448;-71
2022/04/21 00:20:11;;;;;;;12.43;8.43;;;;;;;;;;5075405;28;20475;-71
2022/04/21 00:25:24;;;;;;;12.20;7.23;;;;;;;;;;5075441;28;20821;-71
2022/04/21 00:27:52;;;;;;;12.07;7.10;;;;;;;;;;5075564;28;20493;-72
2022/04/21 00:30:19;;;;;;;15.37;7.80;;;;;;;;;;5075457;28;20475;-71
2022/04/21 00:32:46;;;;;;;10.07;7.90;;;;;;;;;;5075231;28;20451;-73
2022/04/21 00:35:17;;;;;;;8.77;6.80;;;;;;;;;;5075188;28;21006;-71
2022/04/21 00:37:45;;;;;;;11.20;6.70;;;;;;;;;;5075193;28;20541;-71
2022/04/21 00:40:12;;;;;;;10.20;7.23;;;;;;;;;;5075183;28;20995;-71
2022/04/21 00:42:39;;;;;;;11.20;7.90;;;;;;;;;;5074222;28;20458;-71
2022/04/21 00:45:07;;;;;;;13.90;8.73;;;;;;;;;;5075018;28;20796;-73
2022/04/21 00:47:35;;;;;;;24.43;13.03;;;;;;;;;;5075122;28;20544;-72
2022/04/21 00:50:02;;;;;;;17.87;10.60;;;;;;;;;;5074934;28;20910;-72
2022/04/21 00:52:32;;;;;;;15.97;9.17;;;;;;;;;;5075065;28;20928;-71
2022/04/21 00:54:59;;;;;;;13.57;8.17;;;;;;;;;;5074707;28;20956;-73
2022/04/21 00:57:26;;;;;;;10.57;7.70;;;;;;;;;;5074974;28;20448;-71
2022/04/21 00:59:54;;;;;;;10.07;8.60;;;;;;;;;;5074763;28;20518;-71
2022/04/21 01:05:08;;;;;;;9.90;7.23;;;;;;;;;;5074809;28;20974;-71
2022/04/21 01:07:36;;;;;;;9.47;6.50;;;;;;;;;;5074612;28;20515;-71
2022/04/21 01:10:03;;;;;;;11.70;7.40;;;;;;;;;;5074445;28;21003;-71
2022/04/21 01:12:31;;;;;;;10.97;7.67;;;;;;;;;;5074662;28;20560;-71
2022/04/21 01:14:58;;;;;;;9.60;7.00;;;;;;;;;;5074291;28;20456;-71
2022/04/21 01:17:32;;;;;;;11.53;7.90;;;;;;;;;;5074640;28;20455;-71
2022/04/21 01:19:59;;;;;;;10.07;6.60;;;;;;;;;;5074331;28;20486;-71
2022/04/21 01:22:28;;;;;;;8.07;6.13;;;;;;;;;;5073766;28;20523;-71
2022/04/21 01:24:56;;;;;;;13.00;7.83;;;;;;;;;;5074135;28;20479;-71
2022/04/21 01:27:23;;;;;;;11.73;7.67;;;;;;;;;;5074135;28;20455;-71
2022/04/21 01:29:50;;;;;;;7.70;6.17;;;;;;;;;;5074119;28;20521;-71
2022/04/21 01:32:17;;;;;;;8.40;6.40;;;;;;;;;;5074311;28;20478;-71
2022/04/21 01:34:44;;;;;;;9.43;6.30;;;;;;;;;;5073957;28;20503;-71
2022/04/21 01:42:43;;;;;;;9.13;6.07;;;;;;;;;;5074209;28;20427;-71
2022/04/21 01:45:10;;;;;;;9.17;7.53;;;;;;;;;;5073737;28;20455;-71
2022/04/21 01:47:37;;;;;;;10.27;7.50;;;;;;;;;;5073708;28;20448;-72
2022/04/21 01:50:07;;;;;;;12.60;7.30;;;;;;;;;;5073727;28;20479;-71
2022/04/21 01:52:35;;;;;;;10.27;7.17;;;;;;;;;;5073796;28;20456;-71
2022/04/21 01:55:03;;;;;;;14.57;7.80;;;;;;;;;;5073358;28;20462;-71
2022/04/21 01:57:30;;;;;;;11.10;7.50;;;;;;;;;;5073745;28;20459;-71
2022/04/21 01:59:57;;;;;;;11.67;7.87;;;;;;;;;;5073509;28;20475;-71
2022/04/21 02:02:24;;;;;;;9.87;6.97;;;;;;;;;;5073807;28;20460;-72
2022/04/21 02:04:51;;;;;;;10.57;7.60;;;;;;;;;;5073250;28;20456;-72
2022/04/21 02:07:19;;;;;;;13.50;8.50;;;;;;;;;;5073309;28;20467;-71
2022/04/21 02:09:46;;;;;;;8.40;6.83;;;;;;;;;;5073537;28;20559;-71
2022/04/21 02:12:14;;;;;;;8.17;6.07;;;;;;;;;;5073474;28;20452;-71
2022/04/21 02:14:42;;;;;;;10.10;6.80;;;;;;;;;;5073300;28;20446;-72
2022/04/21 02:17:09;;;;;;;15.80;8.83;;;;;;;;;;5073161;28;20505;-71
2022/04/21 02:19:36;;;;;;;20.17;12.23;;;;;;;;;;5073210;28;20476;-71
2022/04/21 02:22:03;;;;;;;16.23;8.97;;;;;;;;;;5072462;28;20936;-71
2022/04/21 02:24:30;;;;;;;15.67;7.73;;;;;;;;;;5073150;28;20451;-71
2022/04/21 02:26:58;;;;;;;11.13;6.80;;;;;;;;;;5073063;28;20455;-71
2022/04/21 02:29:26;;;;;;;9.13;6.37;;;;;;;;;;5073035;28;20502;-71
2022/04/21 02:31:53;;;;;;;9.60;6.47;;;;;;;;;;5073079;28;20866;-71
2022/04/21 02:34:20;;;;;;;7.20;5.80;;;;;;;;;;5073045;28;20820;-71
2022/04/21 02:36:47;;;;;;;10.40;6.20;;;;;;;;;;5073158;28;20482;-71
2022/04/21 02:39:14;;;;;;;10.27;6.70;;;;;;;;;;5072980;28;20471;-70
2022/04/21 02:41:41;;;;;;;9.93;6.77;;;;;;;;;;5073151;28;20459;-71
2022/04/21 02:44:08;;;;;;;8.77;6.50;;;;;;;;;;5072714;28;20459;-71
2022/04/21 02:46:37;;;;;;;9.23;7.30;;;;;;;;;;5073072;28;20451;-71
2022/04/21 02:49:04;;;;;;;13.23;7.97;;;;;;;;;;5072814;28;20487;-71
2022/04/21 02:51:31;;;;;;;9.43;6.63;;;;;;;;;;5073165;28;20811;-71
2022/04/21 02:59:29;;;;;;;10.23;6.67;;;;;;;;;;5072884;28;20497;-71
2022/04/21 03:01:58;;;;;;;9.63;6.30;;;;;;;;;;5072785;28;20447;-72
2022/04/21 03:04:25;;;;;;;9.10;6.50;;;;;;;;;;5072812;28;20494;-71
2022/04/21 03:06:52;;;;;;;16.43;6.30;;;;;;;;;;5076539;28;20447;-72
2022/04/21 03:09:19;;;;;;;8.50;7.53;;;;;;;;;;5076914;28;20851;-71
2022/04/21 03:11:48;;;;;;;12.70;6.87;;;;;;;;;;5077093;28;20452;-71
2022/04/21 03:14:18;;;;;;;9.43;5.97;;;;;;;;;;5077036;28;20455;-72
2022/04/21 03:16:45;;;;;;;10.30;7.03;;;;;;;;;;5076873;28;20953;-71
2022/04/21 03:19:13;;;;;;;7.50;6.07;;;;;;;;;;5076707;28;20525;-71
2022/04/21 03:24:25;;;;;;;8.13;6.57;;;;;;;;;;5077015;28;20494;-71
2022/04/21 03:26:53;;;;;;;11.40;7.40;;;;;;;;;;5076763;28;20475;-72
2022/04/21 03:29:20;;;;;;;8.80;7.30;;;;;;;;;;5076365;28;21024;-71
2022/04/21 03:31:48;;;;;;;9.30;6.93;;;;;;;;;;5076693;28;20830;-72
2022/04/21 03:34:18;;;;;;;12.00;7.60;;;;;;;;;;5076140;28;20474;-71
2022/04/21 03:36:47;;;;;;;8.93;7.33;;;;;;;;;;5076787;28;20455;-71
2022/04/21 03:39:14;;;;;;;10.17;7.77;;;;;;;;;;5076415;28;20475;-71
2022/04/21 03:41:41;;;;;;;10.23;6.97;;;;;;;;;;5076398;28;20458;-71
2022/04/21 03:44:09;;;;;;;10.67;7.67;;;;;;;;;;5076116;28;20462;-71
2022/04/21 03:46:36;;;;;;;11.67;7.90;;;;;;;;;;5076373;28;20451;-73
2022/04/21 03:49:03;;;;;;;14.80;8.10;;;;;;;;;;5075878;28;20495;-71
2022/04/21 03:51:32;;;;;;;12.23;8.13;;;;;;;;;;5076344;28;20863;-71
2022/04/21 03:53:59;;;;;;;9.60;6.87;;;;;;;;;;5076092;28;20852;-71
2022/04/21 03:56:27;;;;;;;11.63;7.63;;;;;;;;;;5076178;28;20440;-71
2022/04/21 03:58:54;;;;;;;8.37;7.37;;;;;;;;;;5075819;28;20467;-72
2022/04/21 04:01:22;;;;;;;8.83;6.90;;;;;;;;;;5076075;28;20944;-71
2022/04/21 04:03:49;;;;;;;9.00;7.33;;;;;;;;;;5075858;28;20646;-71
2022/04/21 04:11:47;;;;;;;8.97;7.53;;;;;;;;;;5075782;28;20944;-71
2022/04/21 04:14:15;;;;;;;13.33;8.30;;;;;;;;;;5075690;28;20831;-71
2022/04/21 04:16:42;;;;;;;11.50;7.97;;;;;;;;;;5075729;28;20809;-71
2022/04/21 04:19:10;;;;;;;9.60;7.53;;;;;;;;;;5075495;28;20475;-71
2022/04/21 04:21:37;;;;;;;14.50;8.50;;;;;;;;;;5075067;28;20455;-71
2022/04/21 04:24:06;;;;;;;10.43;8.00;;;;;;;;;;5075127;28;20995;-71
2022/04/21 04:26:34;;;;;;;10.77;7.63;;;;;;;;;;5075488;28;20466;-71
2022/04/21 04:29:02;;;;;;;8.47;7.50;;;;;;;;;;5075316;28;20491;-71
2022/04/21 04:31:29;;;;;;;10.57;8.17;;;;;;;;;;5075537;28;20626;-71
2022/04/21 04:33:56;;;;;;;12.77;7.70;;;;;;;;;;5075135;28;20953;-71
2022/04/21 04:36:23;;;;;;;11.37;8.67;;;;;;;;;;5075295;28;20452;-71
2022/04/21 04:38:51;;;;;;;12.27;7.90;;;;;;;;;;5075346;28;20479;-72
2022/04/21 04:44:04;;;;;;;10.80;7.70;;;;;;;;;;5074952;28;20430;-71
2022/04/21 04:46:37;;;;;;;11.90;8.20;;;;;;;;;;5075188;28;20459;-71
2022/04/21 04:49:06;;;;;;;12.43;8.70;;;;;;;;;;5074938;28;20483;-71
2022/04/21 04:51:33;;;;;;;15.50;9.70;;;;;;;;;;5075108;28;20460;-71
2022/04/21 04:54:01;;;;;;;16.97;9.37;;;;;;;;;;5074743;28;20948;-71
2022/04/21 04:56:29;;;;;;;12.77;9.50;;;;;;;;;;5074864;28;20513;-71
2022/04/21 04:58:57;;;;;;;19.43;10.13;;;;;;;;;;5074911;28;20482;-72
2022/04/21 05:01:27;;;;;;;15.20;10.30;;;;;;;;;;5074863;28;20459;-72
2022/04/21 05:03:55;;;;;;;13.40;9.20;;;;;;;;;;5074743;28;20458;-72
2022/04/21 05:06:22;;;;;;;14.03;11.00;;;;;;;;;;5074961;28;20475;-71
2022/04/21 05:08:49;;;;;;;16.67;10.13;;;;;;;;;;5074695;28;20501;-71
2022/04/21 05:11:16;;;;;;;14.37;10.80;;;;;;;;;;5074800;28;20529;-71
2022/04/21 05:13:44;;;;;;;12.97;9.70;;;;;;;;;;5074624;28;20459;-74
2022/04/21 05:16:11;;;;;;;13.83;9.33;;;;;;;;;;5074667;28;20466;-71
2022/04/21 05:18:39;;;;;;;13.57;8.97;;;;;;;;;;5074727;28;20474;-71
2022/04/21 05:21:06;;;;;;;11.17;8.80;;;;;;;;;;5074597;28;20463;-71
2022/04/21 05:23:35;;;;;;;13.23;10.63;;;;;;;;;;5073789;28;20466;-72
2022/04/21 05:26:02;;;;;;;13.00;9.17;;;;;;;;;;5074382;28;20451;-71
2022/04/21 05:28:30;;;;;;;13.63;9.70;;;;;;;;;;5073806;28;20483;-71
2022/04/21 05:30:58;;;;;;;13.80;9.70;;;;;;;;;;5074305;28;20451;-72
2022/04/21 05:33:27;;;;;;;16.47;9.30;;;;;;;;;;5074346;28;20504;-72
2022/04/21 05:35:54;;;;;;;13.50;9.87;;;;;;;;;;5074113;28;20459;-71
2022/04/21 05:38:22;;;;;;;12.90;9.60;;;;;;;;;;5074229;28;20471;-71
2022/04/21 05:40:49;;;;;;;19.40;12.63;;;;;;;;;;5074070;28;20837;-71
2022/04/21 05:43:18;;;;;;;17.90;10.67;;;;;;;;;;5074137;28;20501;-72
2022/04/21 05:45:45;;;;;;;16.90;10.90;;;;;;;;;;5073934;28;20464;-71
2022/04/21 05:48:15;;;;;;;18.80;11.47;;;;;;;;;;5073848;28;20470;-71
2022/04/21 05:50:45;;;;;;;14.77;9.37;;;;;;;;;;5073928;28;20486;-71
2022/04/21 05:53:15;;;;;;;16.57;11.97;;;;;;;;;;5073757;28;20965;-71
2022/04/21 05:55:43;;;;;;;15.83;12.60;;;;;;;;;;5073858;28;20869;-72
2022/04/21 05:58:10;;;;;;;19.30;12.00;;;;;;;;;;5073544;28;20462;-72
2022/04/21 06:00:38;;;;;;;17.00;11.63;;;;;;;;;;5074009;28;20497;-71
2022/04/21 06:03:05;;;;;;;19.07;11.77;;;;;;;;;;5073704;28;20452;-72
2022/04/21 06:05:34;;;;;;;17.27;10.80;;;;;;;;;;5073528;28;20495;-71
2022/04/21 06:08:01;;;;;;;12.70;10.80;;;;;;;;;;5073512;28;20440;-72
2022/04/21 06:10:28;;;;;;;18.70;13.00;;;;;;;;;;5073735;28;20880;-72
2022/04/21 06:12:55;;;;;;;12.60;9.80;;;;;;;;;;5073498;28;20523;-71
2022/04/21 06:15:22;;;;;;;16.90;10.50;;;;;;;;;;5073302;28;20448;-71
2022/04/21 06:17:49;;;;;;;14.70;11.57;;;;;;;;;;5073624;28;20460;-71
2022/04/21 06:20:16;;;;;;;15.67;11.40;;;;;;;;;;5073272;28;20459;-71
2022/04/21 06:22:45;;;;;;;18.13;11.20;;;;;;;;;;5072670;28;20471;-71
2022/04/21 06:25:12;;;;;;;21.33;13.70;;;;;;;;;;5073095;28;20463;-71
2022/04/21 06:27:39;;;;;;;13.90;10.63;;;;;;;;;;5073466;28;20862;-71
2022/04/21 06:30:07;;;;;;;14.70;10.73;;;;;;;;;;5073089;28;20996;-71
2022/04/21 06:32:34;;;;;;;16.00;10.67;;;;;;;;;;5073282;28;20463;-71
2022/04/21 06:35:02;;;;;;;13.17;10.37;;;;;;;;;;5073148;28;20971;-71
2022/04/21 06:37:29;;;;;;;14.53;10.90;;;;;;;;;;5073473;28;20554;-73
2022/04/21 06:39:58;;;;;;;14.90;9.70;;;;;;;;;;5072328;28;20973;-72
2022/04/21 06:42:25;;;;;;;13.07;9.90;;;;;;;;;;5073119;28;20495;-71
2022/04/21 06:50:21;;;;;;;12.20;10.17;;;;;;;;;;5073430;28;20486;-71
2022/04/21 06:52:48;;;;;;;15.23;10.80;;;;;;;;;;5073032;28;20451;-71
2022/04/21 06:55:17;;;;;;;18.43;9.63;;;;;;;;;;5072948;28;20451;-72
2022/04/21 06:57:44;;;;;;;10.37;8.40;;;;;;;;;;5072952;28;20452;-72
2022/04/21 07:00:11;;;;;;;15.57;10.67;;;;;;;;;;5072754;28;20468;-73
2022/04/21 07:02:38;;;;;;;14.63;11.87;;;;;;;;;;5073101;28;20462;-72
2022/04/21 07:05:06;;;;;;;14.07;9.70;;;;;;;;;;5072868;28;20452;-72
2022/04/21 07:07:33;;;;;;;20.33;10.47;;;;;;;;;;5073226;28;20451;-71
2022/04/21 07:10:01;;;;;;;16.00;11.20;;;;;;;;;;5072770;28;21111;-72
2022/04/21 07:12:30;;;;;;;14.53;9.77;;;;;;;;;;5073168;28;20498;-71
2022/04/21 07:14:58;;;;;;;12.80;9.70;;;;;;;;;;5072707;28;20502;-72
2022/04/21 07:17:25;;;;;;;22.30;18.30;;;;;;;;;;5072755;28;20491;-72
2022/04/21 07:19:52;;;;;;;11.03;9.23;;;;;;;;;;5072597;28;20472;-72
2022/04/21 07:22:20;;;;;;;15.33;8.90;;;;;;;;;;5072197;28;20828;-71
2022/04/21 07:24:48;;;;;;;13.77;9.73;;;;;;;;;;5072615;28;20479;-71
2022/04/21 07:27:15;;;;;;;12.80;8.77;;;;;;;;;;5072610;28;20476;-71
2022/04/21 07:29:43;;;;;;;11.97;9.57;;;;;;;;;;5072537;28;20491;-72
2022/04/21 07:32:11;;;;;;;9.53;7.30;;;;;;;;;;5072687;28;20468;-72
2022/04/21 07:34:38;;;;;;;12.43;9.57;;;;;;;;;;5072577;28;20513;-72
2022/04/21 07:37:06;;;;;;;12.70;9.70;;;;;;;;;;5072600;28;20455;-72
2022/04/21 07:39:33;;;;;;;13.27;10.20;;;;;;;;;;5072583;28;20480;-71
2022/04/21 07:42:00;;;;;;;12.10;8.70;;;;;;;;;;5072491;28;20859;-72
2022/04/21 07:44:28;;;;;;;14.17;9.53;;;;;;;;;;5072413;28;20447;-72
2022/04/21 07:46:57;;;;;;;13.60;9.03;;;;;;;;;;5072502;28;20546;-72
2022/04/21 07:55:14;;;;;;;15.70;9.87;;;;;;;;;;5033949;28;20805;-72
2022/04/21 07:57:41;;;;;;;11.50;8.60;;;;;;;;;;5059427;28;20466;-71
2022/04/21 08:00:09;;;;;;;13.07;9.07;;;;;;;;;;5076179;28;20491;-72
2022/04/21 08:02:38;;;;;;;12.20;8.67;;;;;;;;;;5076042;28;20439;-72
2022/04/21 08:05:06;;;;;;;10.27;9.17;;;;;;;;;;5075699;28;20455;-72
2022/04/21 08:07:34;;;;;;;12.00;9.97;;;;;;;;;;5075922;28;20459;-72
2022/04/21 08:10:02;;;;;;;10.97;8.77;;;;;;;;;;5075640;28;20491;-73
2022/04/21 08:12:29;;;;;;;9.63;8.27;;;;;;;;;;5076223;28;20816;-72
2022/04/21 08:14:56;;;;;;;9.73;8.73;;;;;;;;;;5075552;28;20483;-72
2022/04/21 08:17:23;;;;;;;16.07;9.77;;;;;;;;;;5075693;28;20546;-72
2022/04/21 08:19:51;;;;;;;11.90;8.40;;;;;;;;;;5075669;28;20493;-72
2022/04/21 08:22:19;;;;;;;11.53;8.80;;;;;;;;;;5075100;28;20460;-72
2022/04/21 08:33:00;;;;;;;10.63;8.20;;;;;;;;;;5075534;28;20757;-72
2022/04/21 08:35:28;;;;;;;10.17;8.10;;;;;;;;;;5075588;28;20790;-72
2022/04/21 08:37:55;;;;;;;26.70;16.67;;;;;;;;;;5075493;28;20455;-73
2022/04/21 08:40:24;;;;;;;9.00;8.13;;;;;;;;;;5075564;28;20479;-73
2022/04/21 08:42:54;;;;;;;9.10;8.07;;;;;;;;;;5075208;28;20456;-72
2022/04/21 08:45:22;;;;;;;14.03;8.83;;;;;;;;;;5075478;28;20451;-72
2022/04/21 08:47:50;;;;;;;11.03;8.97;;;;;;;;;;5075426;28;20463;-72
2022/04/21 08:50:17;;;;;;;12.27;9.97;;;;;;;;;;5075110;28;20491;-72
2022/04/21 08:52:45;;;;;;;12.33;9.60;;;;;;;;;;5075173;28;20447;-73
2022/04/21 08:55:12;;;;;;;10.47;8.10;;;;;;;;;;5074920;28;20459;-72
2022/04/21 08:57:39;;;;;;;9.43;8.43;;;;;;;;;;5075095;28;20451;-72
2022/04/21 09:00:08;;;;;;;12.07;9.80;;;;;;;;;;5074853;28;20494;-72
2022/04/21 09:02:36;;;;;;;12.40;10.50;;;;;;;;;;5074476;28;20971;-72
2022/04/21 09:05:04;;;;;;;11.80;9.77;;;;;;;;;;5074681;28;20526;-73
2022/04/21 09:07:31;;;;;;;11.33;10.20;;;;;;;;;;5075034;28;20459;-72
2022/04/21 09:10:05;;;;;;;12.33;10.10;;;;;;;;;;5074661;28;20989;-72
2022/04/21 09:12:32;;;;;;;10.87;9.67;;;;;;;;;;5075046;28;20451;-72
2022/04/21 09:15:05;;;;;;;10.30;9.27;;;;;;;;;;5074624;28;20456;-73
2022/04/21 09:17:32;;;;;;;14.00;9.33;;;;;;;;;;5074906;28;20839;-73
2022/04/21 09:20:00;;;;;;;9.87;8.80;;;;;;;;;;5074562;28;20490;-73
2022/04/21 09:22:32;;;;;;;14.47;10.87;;;;;;;;;;5074190;28;20486;-72
2022/04/21 09:24:59;;;;;;;13.13;9.90;;;;;;;;;;5074312;28;20459;-72
2022/04/21 09:27:38;;;;;;;9.97;9.00;;;;;;;;;;5074490;28;20444;-72
2022/04/21 09:30:10;;;;;;;10.53;9.30;;;;;;;;;;5074521;28;20494;-72
2022/04/21 09:32:37;;;;;;;13.43;10.50;;;;;;;;;;5074305;28;20451;-72
2022/04/21 09:35:05;;;;;;;11.70;9.80;;;;;;;;;;5074444;28;20526;-72
2022/04/21 09:37:33;;;;;;;11.60;10.20;;;;;;;;;;5074400;28;20488;-72
2022/04/21 09:40:02;;;;;;;11.60;10.40;;;;;;;;;;5074283;28;20456;-72
2022/04/21 09:42:31;;;;;;;10.83;9.70;;;;;;;;;;5074482;28;20899;-72
2022/04/21 09:47:50;;;;;;;12.30;11.00;;;;;;;;;;5074264;28;20811;-72
2022/04/21 09:50:17;;;;;;;12.40;11.10;;;;;;;;;;5073895;28;20552;-72
2022/04/21 09:52:50;;;;;;;12.40;10.93;;;;;;;;;;5073983;28;20455;-72
2022/04/21 09:55:25;;;;;;;11.53;10.20;;;;;;;;;;5073759;28;20463;-72
2022/04/21 09:57:54;;;;;;;24.17;15.27;;;;;;;;;;5074021;28;20837;-73
2022/04/21 10:00:22;;;;;;;21.03;14.80;;;;;;;;;;5074006;28;20964;-72
2022/04/21 10:02:51;;;;;;;16.23;12.20;;;;;;;;;;5073931;28;20447;-72
2022/04/21 10:05:19;;;;;;;25.80;17.13;;;;;;;;;;5073759;28;20456;-72
2022/04/21 10:07:46;;;;;;;14.87;13.00;;;;;;;;;;5073871;28;20968;-73
2022/04/21 10:10:13;;;;;;;10.37;8.30;;;;;;;;;;5073349;28;20487;-73
2022/04/21 10:12:42;;;;;;;11.70;10.23;;;;;;;;;;5073562;28;20455;-72
2022/04/21 10:15:11;;;;;;;17.93;16.37;;;;;;;;;;5073274;28;20483;-72
2022/04/21 10:17:39;;;;;;;10.00;8.90;;;;;;;;;;5073630;28;20459;-72
2022/04/21 10:20:06;;;;;;;9.90;8.90;;;;;;;;;;5073452;28;20479;-72
2022/04/21 10:22:34;;;;;;;9.83;8.93;;;;;;;;;;5073215;28;20988;-72
2022/04/21 10:25:03;;;;;;;9.00;8.07;;;;;;;;;;5073480;28;20983;-72
2022/04/21 10:27:37;;;;;;;9.77;8.67;;;;;;;;;;5073534;28;20455;-72
2022/04/21 10:30:11;;;;;;;9.50;8.57;;;;;;;;;;5073090;28;20521;-72
2022/04/21 10:32:50;;;;;;;8.17;7.47;;;;;;;;;;5073510;28;20877;-73
2022/04/21 10:35:35;;;;;;;9.53;8.63;;;;;;;;;;5073108;28;20450;-72
2022/04/21 10:38:17;;;;;;;8.70;7.67;;;;;;;;;;5063189;28;20546;-73
2022/04/21 10:40:55;;;;;;;10.60;8.33;;;;;;;;;;5073619;28;20924;-73
2022/04/21 10:43:22;;;;;;;7.40;6.70;;;;;;;;;;5073315;28;20801;-74
2022/04/21 10:46:03;;;;;;;7.30;6.27;;;;;;;;;;5072961;28;20451;-73
2022/04/21 10:48:45;;;;;;;13.87;8.13;;;;;;;;;;5073010;28;20467;-73
2022/04/21 10:51:14;;;;;;;11.60;6.90;;;;;;;;;;5070802;28;20532;-73
2022/04/21 10:59:30;;;;;;;6.13;5.63;;;;;;;;;;5073173;28;20480;-72
2022/04/21 11:01:57;;;;;;;10.00;8.10;;;;;;;;;;5078517;28;20479;-73
2022/04/21 11:04:25;;;;;;;7.53;6.23;;;;;;;;;;5082954;28;20448;-73
2022/04/21 11:07:06;;;;;;;8.03;7.33;;;;;;;;;;5088170;28;20823;-73
2022/04/21 11:09:51;;;;;;;11.60;9.10;;;;;;;;;;5093481;28;20477;-72
2022/04/21 11:12:19;;;;;;;8.43;7.20;;;;;;;;;;5092829;28;20486;-73
2022/04/21 11:14:46;;;;;;;11.70;8.50;;;;;;;;;;5092356;28;20505;-75
2022/04/21 11:17:13;;;;;;;9.20;7.77;;;;;;;;;;5093256;28;20482;-73
2022/04/21 11:19:44;;;;;;;9.93;8.80;;;;;;;;;;5093189;28;20475;-73
2022/04/21 11:22:13;;;;;;;7.70;7.00;;;;;;;;;;5092973;28;20918;-73
2022/04/21 11:25:00;;;;;;;9.17;8.27;;;;;;;;;;5092816;28;20491;-73
2022/04/21 11:27:28;;;;;;;9.80;8.80;;;;;;;;;;5096454;28;20458;-73
2022/04/21 11:29:59;;;;;;;9.43;8.30;;;;;;;;;;5097379;28;20959;-73
2022/04/21 11:32:26;;;;;;;9.57;8.67;;;;;;;;;;5097076;28;20486;-73
2022/04/21 11:35:00;;;;;;;8.53;7.73;;;;;;;;;;5097016;28;20450;-73
2022/04/21 11:37:46;;;;;;;10.67;8.50;;;;;;;;;;5096863;28;20458;-73
2022/04/21 11:40:24;;;;;;;12.90;10.03;;;;;;;;;;5096885;28;20481;-72
2022/04/21 11:42:52;;;;;;;10.03;9.03;;;;;;;;;;5096708;28;20449;-72
2022/04/21 11:45:19;;;;;;;10.70;9.10;;;;;;;;;;5097215;28;20447;-73
2022/04/21 11:47:47;;;;;;;10.20;9.10;;;;;;;;;;5096946;28;20940;-72
2022/04/21 11:50:19;;;;;;;9.73;8.63;;;;;;;;;;5096833;28;20829;-73
2022/04/21 11:52:47;;;;;;;17.37;7.83;;;;;;;;;;5096631;28;20457;-73
2022/04/21 11:55:16;;;;;;;8.90;8.00;;;;;;;;;;5096226;28;20489;-73
2022/04/21 11:57:45;;;;;;;10.40;9.17;;;;;;;;;;5096366;28;20447;-73
2022/04/21 12:00:15;;;;;;;9.10;7.60;;;;;;;;;;5096115;28;20470;-74
2022/04/21 12:08:12;;;;;;;10.27;9.20;;;;;;;;;;5096421;28;20422;-73
2022/04/21 12:10:41;;;;;;;9.07;7.57;;;;;;;;;;5096261;28;20443;-74
2022/04/21 12:13:10;;;;;;;6.93;6.33;;;;;;;;;;5096309;28;20458;-73
2022/04/21 12:15:39;;;;;;;10.77;7.23;;;;;;;;;;5096215;28;20982;-73
2022/04/21 12:18:07;;;;;;;9.13;8.20;;;;;;;;;;5095936;28;20482;-73
2022/04/21 12:20:34;;;;;;;11.37;9.70;;;;;;;;;;5096112;28;20857;-73
2022/04/21 12:23:01;;;;;;;10.70;8.47;;;;;;;;;;5095567;28;20466;-73
2022/04/21 12:25:32;;;;;;;15.33;8.97;;;;;;;;;;5096014;28;20451;-74
2022/04/21 12:28:03;;;;;;;10.10;8.63;;;;;;;;;;5096003;28;20446;-73
2022/04/21 12:30:31;;;;;;;8.93;8.03;;;;;;;;;;5096088;28;20474;-73
2022/04/21 12:32:58;;;;;;;13.77;8.80;;;;;;;;;;5095665;28;20451;-73
2022/04/21 12:35:45;;;;;;;12.10;8.47;;;;;;;;;;5095870;28;20438;-73
2022/04/21 12:40:59;;;;;;;10.50;8.43;;;;;;;;;;5095759;28;20799;-73
2022/04/21 12:43:27;;;;;;;9.50;7.17;;;;;;;;;;5095678;28;20451;-73
2022/04/21 12:45:55;;;;;;;7.50;6.70;;;;;;;;;;5095565;28;20485;-74
2022/04/21 12:48:23;;;;;;;8.43;6.53;;;;;;;;;;5095479;28;20473;-73
2022/04/21 12:50:50;;;;;;;6.83;6.13;;;;;;;;;;5095396;28;20493;-73
2022/04/21 12:53:25;;;;;;;7.10;6.40;;;;;;;;;;5095670;28;20935;-73
2022/04/21 12:55:52;;;;;;;7.90;6.20;;;;;;;;;;5095433;28;20489;-74
2022/04/21 12:58:29;;;;;;;7.20;5.50;;;;;;;;;;5095298;28;20940;-73
2022/04/21 13:01:00;;;;;;;10.43;6.90;;;;;;;;;;5095255;28;20494;-74
2022/04/21 13:03:27;;;;;;;12.70;5.67;;;;;;;;;;5095138;28;20447;-74
2022/04/21 13:05:55;;;;;;;7.50;6.00;;;;;;;;;;5095099;28;20541;-73
2022/04/21 13:08:23;;;;;;;10.13;7.37;;;;;;;;;;5095100;28;20479;-73
2022/04/21 13:10:51;;;;;;;8.00;6.27;;;;;;;;;;5094919;28;20463;-74
2022/04/21 13:13:18;;;;;;;7.30;5.43;;;;;;;;;;5095019;28;20455;-73
2022/04/21 13:15:45;;;;;;;5.40;4.73;;;;;;;;;;5094920;28;20453;-73
2022/04/21 13:18:15;;;;;;;9.93;5.10;;;;;;;;;;5094907;28;20462;-73
2022/04/21 13:23:27;;;;;;;7.93;5.73;;;;;;;;;;5094388;28;20446;-78
2022/04/21 13:25:54;;;;;;;6.87;6.17;;;;;;;;;;5094864;28;20451;-73
2022/04/21 13:28:22;;;;;;;7.30;5.90;;;;;;;;;;5094829;28;20479;-72
2022/04/21 13:33:21;;;;;;;5.47;4.70;;;;;;;;;;5095055;28;20451;-72
2022/04/21 13:33:37;;;;;;;5.27;4.77;;;;;;;;;;5094404;28;20522;-73
2022/04/21 13:36:06;;;;;;;6.30;5.37;;;;;;;;;;5094518;28;20469;-73
2022/04/21 13:38:33;;;;;;;7.53;5.40;;;;;;;;;;5094622;28;20481;-73
2022/04/21 13:41:00;;;;;;;5.03;4.50;;;;;;;;;;5094401;28;20457;-72
2022/04/21 13:43:28;;;;;;;5.60;4.40;;;;;;;;;;5094369;28;20450;-74
2022/04/21 13:45:56;;;;;;;6.30;4.23;;;;;;;;;;5094395;28;20478;-73
2022/04/21 13:48:23;;;;;;;4.83;4.00;;;;;;;;;;5094213;28;20513;-73
2022/04/21 13:50:52;;;;;;;6.40;3.93;;;;;;;;;;5094119;28;20454;-75
2022/04/21 13:53:19;;;;;;;6.80;3.70;;;;;;;;;;5094220;28;20522;-73
2022/04/21 13:55:47;;;;;;;5.13;3.07;;;;;;;;;;5094021;28;20446;-73
2022/04/21 13:58:14;;;;;;;4.37;3.70;;;;;;;;;;5094066;28;20943;-73
2022/04/21 14:00:44;;;;;;;4.60;3.60;;;;;;;;;;5094224;28;20872;-73
2022/04/21 14:03:12;;;;;;;4.70;3.80;;;;;;;;;;5094114;28;20955;-73
2022/04/21 14:05:39;;;;;;;4.73;2.93;;;;;;;;;;5094019;28;20871;-73
2022/04/21 14:08:08;;;;;;;3.90;3.50;;;;;;;;;;5093978;28;20446;-73
2022/04/21 14:10:35;;;;;;;5.10;4.00;;;;;;;;;;5094012;28;20450;-73
2022/04/21 14:13:03;;;;;;;7.00;3.93;;;;;;;;;;5093836;28;20505;-73
2022/04/21 14:15:30;;;;;;;7.70;3.83;;;;;;;;;;5093691;28;20447;-73
2022/04/21 14:17:58;;;;;;;5.83;4.17;;;;;;;;;;5093884;28;20486;-74
2022/04/21 14:20:25;;;;;;;6.33;4.43;;;;;;;;;;5093853;28;20473;-73
2022/04/21 14:22:52;;;;;;;7.33;4.97;;;;;;;;;;5093722;28;20479;-74
2022/04/21 14:25:20;;;;;;;7.93;4.70;;;;;;;;;;5093490;28;20450;-73
2022/04/21 14:27:48;;;;;;;4.23;3.43;;;;;;;;;;5092680;28;20467;-73
2022/04/21 14:30:15;;;;;;;4.60;4.17;;;;;;;;;;5093397;28;20505;-73
2022/04/21 14:32:42;;;;;;;4.07;3.67;;;;;;;;;;5093619;28;21033;-73
2022/04/21 14:35:09;;;;;;;5.50;4.50;;;;;;;;;;5093710;28;20474;-73
2022/04/21 14:45:52;;;;;;;4.17;3.37;;;;;;;;;;5093266;28;20434;-73
2022/04/21 14:48:19;;;;;;;9.27;3.83;;;;;;;;;;5093219;28;20454;-72
2022/04/21 14:50:46;;;;;;;4.57;4.00;;;;;;;;;;5093461;28;20800;-73
2022/04/21 14:53:13;;;;;;;3.47;3.13;;;;;;;;;;5093476;28;20841;-74
2022/04/21 14:55:41;;;;;;;4.23;3.50;;;;;;;;;;5092990;28;20453;-73
2022/04/21 14:58:08;;;;;;;5.03;3.73;;;;;;;;;;5093186;28;20453;-73
2022/04/21 15:00:35;;;;;;;4.53;4.03;;;;;;;;;;5092805;28;20454;-73
2022/04/21 15:03:03;;;;;;;4.20;3.67;;;;;;;;;;5093113;28;20966;-73
2022/04/21 15:05:30;;;;;;;8.63;4.50;;;;;;;;;;5093138;28;20936;-74
2022/04/21 15:07:59;;;;;;;6.07;5.47;;;;;;;;;;5093230;28;20446;-73
2022/04/21 15:10:26;;;;;;;5.23;4.00;;;;;;;;;;5093145;28;20459;-73
2022/04/21 15:12:54;;;;;;;5.37;4.23;;;;;;;;;;5093142;28;20899;-73
2022/04/21 15:15:22;;;;;;;5.20;3.70;;;;;;;;;;5092740;28;20451;-73
2022/04/21 15:17:49;;;;;;;5.07;4.00;;;;;;;;;;5093227;28;20824;-73
2022/04/21 15:20:16;;;;;;;6.80;4.10;;;;;;;;;;5092848;28;20485;-73
2022/04/21 15:22:43;;;;;;;6.83;5.33;;;;;;;;;;5092873;28;20459;-74
2022/04/21 15:25:10;;;;;;;7.10;5.47;;;;;;;;;;5092897;28;20458;-74
2022/04/21 15:27:37;;;;;;;6.53;5.07;;;;;;;;;;5093339;28;20450;-76
2022/04/21 15:30:06;;;;;;;7.63;5.10;;;;;;;;;;5092934;28;20467;-73
2022/04/21 15:32:34;;;;;;;5.03;4.57;;;;;;;;;;5092976;28;20487;-73
2022/04/21 15:35:01;;;;;;;5.80;4.40;;;;;;;;;;5092587;28;20461;-72
2022/04/21 15:37:28;;;;;;;4.60;3.90;;;;;;;;;;5092989;28;20455;-72
2022/04/21 15:39:55;;;;;;;5.70;4.20;;;;;;;;;;5092858;28;20466;-73
2022/04/21 15:42:22;;;;;;;5.10;4.60;;;;;;;;;;5092821;28;20943;-72
2022/04/21 15:44:49;;;;;;;5.67;4.80;;;;;;;;;;5092731;28;20541;-72
2022/04/21 15:47:18;;;;;;;5.70;4.50;;;;;;;;;;5092656;28;20446;-73
2022/04/21 15:49:45;;;;;;;6.57;5.07;;;;;;;;;;5092789;28;20827;-72
2022/04/21 15:52:12;;;;;;;7.43;5.90;;;;;;;;;;5092767;28;20854;-73
2022/04/21 16:00:09;;;;;;;5.23;4.00;;;;;;;;;;5092613;28;20477;-72